Time;durP1;ratioP1;P1;durP2;ratioP2;P2;SDS_P1;SDS_P2;PMS_P1;PMS_P2;Temp;Humidity;BMP_temperature;BMP_pressure;BME280_temperature;BME280_humidity;BME280_pressure;Samples;Min_cycle;Max_cycle;Signal;HPM_P1;HPM_P2
2021/06/04 00:00:21;;;;;;;19.15;14.75;;;20.90;71.50;;;;;;6261007;23;20435;-71
2021/06/04 00:02:48;;;;;;;16.55;14.23;;;20.90;71.40;;;;;;6260581;23;20069;-71
2021/06/04 00:05:17;;;;;;;15.63;13.60;;;20.90;71.40;;;;;;6260154;23;20016;-71
2021/06/04 00:07:43;;;;;;;16.08;13.77;;;20.80;71.30;;;;;;6260370;23;20341;-71
2021/06/04 00:10:16;;;;;;;14.88;13.13;;;20.90;71.20;;;;;;6260275;23;20020;-71
2021/06/04 00:12:42;;;;;;;15.90;13.07;;;20.90;71.20;;;;;;6260283;23;20024;-71
2021/06/04 00:15:12;;;;;;;14.63;12.98;;;20.80;71.20;;;;;;6249767;23;20028;-71
2021/06/04 00:17:39;;;;;;;16.15;13.43;;;20.90;71.20;;;;;;6259691;23;20317;-72
2021/06/04 00:20:28;;;;;;;14.98;12.73;;;20.90;71.20;;;;;;6260167;23;20016;-71
2021/06/04 00:22:54;;;;;;;16.08;12.38;;;20.90;71.20;;;;;;6259718;23;20032;-71
2021/06/04 00:25:20;;;;;;;14.60;12.75;;;20.80;71.10;;;;;;6259980;23;20123;-71
2021/06/04 00:27:47;;;;;;;15.05;12.65;;;20.90;71.10;;;;;;6260009;23;20012;-72
2021/06/04 00:30:15;;;;;;;13.85;12.25;;;20.90;71.10;;;;;;6250153;23;20020;-72
2021/06/04 00:32:41;;;;;;;14.10;12.05;;;20.80;71.10;;;;;;6260562;23;20142;-72
2021/06/04 00:35:09;;;;;;;14.70;12.50;;;20.80;71.00;;;;;;6259906;23;20016;-71
2021/06/04 00:37:35;;;;;;;15.52;13.07;;;20.80;71.00;;;;;;6260604;23;20016;-72
2021/06/04 00:40:01;;;;;;;14.60;12.27;;;20.90;71.00;;;;;;6250147;23;20024;-71
2021/06/04 00:42:34;;;;;;;15.88;12.32;;;20.90;70.90;;;;;;6223463;23;20393;-71
2021/06/04 00:45:01;;;;;;;15.70;13.02;;;20.90;70.90;;;;;;6259359;23;20027;-71
2021/06/04 00:47:28;;;;;;;14.85;12.38;;;20.90;70.90;;;;;;6249758;23;20079;-71
2021/06/04 00:49:54;;;;;;;13.43;11.65;;;20.90;70.90;;;;;;6259763;23;20421;-71
2021/06/04 00:52:28;;;;;;;13.85;11.77;;;20.90;70.90;;;;;;6254729;23;20095;-71
2021/06/04 00:54:59;;;;;;;14.15;11.63;;;20.90;70.80;;;;;;6259776;23;20483;-71
2021/06/04 00:57:27;;;;;;;12.38;11.07;;;20.80;70.70;;;;;;6260062;23;20027;-71
2021/06/04 01:00:11;;;;;;;14.95;11.60;;;20.90;70.70;;;;;;6249366;23;20023;-71
2021/06/04 01:02:37;;;;;;;13.57;10.82;;;20.90;70.80;;;;;;6260267;23;20439;-72
2021/06/04 01:05:06;;;;;;;12.45;11.25;;;20.90;70.70;;;;;;6260115;23;20016;-72
2021/06/04 01:07:50;;;;;;;12.98;10.85;;;20.90;70.70;;;;;;6250356;23;20055;-72
2021/06/04 01:10:34;;;;;;;12.20;10.85;;;20.90;70.70;;;;;;6250314;23;20129;-72
2021/06/04 01:13:14;;;;;;;13.00;10.70;;;20.90;70.70;;;;;;6260267;23;20016;-72
2021/06/04 01:16:12;;;;;;;12.00;10.27;;;20.90;70.60;;;;;;6249105;23;20039;-72
2021/06/04 01:19:00;;;;;;;13.35;11.05;;;20.80;70.50;;;;;;6260481;23;20459;-72
2021/06/04 01:21:44;;;;;;;14.05;11.65;;;20.80;70.60;;;;;;6259939;23;20095;-72
2021/06/04 01:24:37;;;;;;;12.48;11.18;;;20.80;70.50;;;;;;6249816;23;20098;-72
2021/06/04 01:27:11;;;;;;;13.37;11.17;;;20.80;70.50;;;;;;6250261;23;20012;-71
2021/06/04 01:29:43;;;;;;;13.48;11.10;;;20.90;70.60;;;;;;6249859;23;20016;-72
2021/06/04 01:32:17;;;;;;;11.40;10.20;;;20.90;70.60;;;;;;6259761;23;20016;-71
2021/06/04 01:34:49;;;;;;;11.20;10.00;;;20.80;70.40;;;;;;6249654;23;20020;-71
2021/06/04 01:37:25;;;;;;;13.32;10.13;;;20.90;70.50;;;;;;6259575;23;20023;-72
2021/06/04 01:39:58;;;;;;;12.27;10.65;;;20.80;70.40;;;;;;6259204;23;20091;-71
2021/06/04 01:42:28;;;;;;;11.45;10.30;;;20.90;70.50;;;;;;6259339;23;20023;-72
2021/06/04 01:45:07;;;;;;;12.27;10.90;;;20.80;70.60;;;;;;6259253;23;20011;-71
2021/06/04 01:47:37;;;;;;;11.70;10.50;;;20.80;70.40;;;;;;6259588;23;20440;-71
2021/06/04 01:50:35;;;;;;;12.25;10.77;;;20.80;70.40;;;;;;6249503;23;20027;-71
2021/06/04 01:53:36;;;;;;;12.93;11.15;;;20.80;70.40;;;;;;6259170;23;20012;-71
2021/06/04 01:56:21;;;;;;;14.70;11.90;;;20.80;70.50;;;;;;6231240;23;20038;-71
2021/06/04 01:59:27;;;;;;;12.77;11.40;;;20.80;70.50;;;;;;6248761;23;20023;-71
2021/06/04 02:01:54;;;;;;;12.60;11.30;;;20.80;70.60;;;;;;6244350;23;20074;-72
2021/06/04 02:04:28;;;;;;;13.82;11.02;;;20.80;70.60;;;;;;6248715;23;20020;-72
2021/06/04 02:06:55;;;;;;;12.15;10.85;;;20.80;70.50;;;;;;6249717;23;20038;-72
2021/06/04 02:09:23;;;;;;;13.98;11.13;;;20.80;70.50;;;;;;6248493;23;20027;-71
2021/06/04 02:11:50;;;;;;;12.50;10.93;;;20.80;70.50;;;;;;6248771;23;20091;-72
2021/06/04 02:14:22;;;;;;;13.55;11.18;;;20.80;70.50;;;;;;6254640;23;20020;-71
2021/06/04 02:17:06;;;;;;;11.85;10.55;;;20.80;70.50;;;;;;6258940;23;20023;-71
2021/06/04 02:19:54;;;;;;;12.55;10.70;;;20.80;70.40;;;;;;6258925;23;20070;-71
2021/06/04 02:22:51;;;;;;;13.65;11.18;;;20.80;70.50;;;;;;6258903;23;20012;-71
2021/06/04 02:25:42;;;;;;;13.05;11.02;;;20.80;70.40;;;;;;6260268;23;20016;-71
2021/06/04 02:28:39;;;;;;;11.45;10.25;;;20.80;70.40;;;;;;6258903;23;20040;-72
2021/06/04 02:31:28;;;;;;;12.63;10.75;;;20.80;70.40;;;;;;6246511;23;20012;-71
2021/06/04 02:34:05;;;;;;;13.50;11.10;;;20.70;70.30;;;;;;6258439;23;20058;-71
2021/06/04 02:36:36;;;;;;;11.88;10.55;;;20.70;70.40;;;;;;6259398;23;20016;-71
2021/06/04 02:39:16;;;;;;;11.50;10.30;;;20.70;70.40;;;;;;6232677;23;20020;-72
2021/06/04 02:41:52;;;;;;;14.23;10.85;;;20.70;70.20;;;;;;6222614;23;20019;-71
2021/06/04 02:44:25;;;;;;;12.63;10.02;;;20.70;70.40;;;;;;6259389;23;20023;-72
2021/06/04 02:46:56;;;;;;;12.07;10.38;;;20.70;70.30;;;;;;6258576;23;20016;-72
2021/06/04 02:49:23;;;;;;;10.55;9.48;;;20.70;70.30;;;;;;6258602;23;20081;-72
2021/06/04 02:52:09;;;;;;;12.00;10.43;;;20.70;70.30;;;;;;6258640;23;20016;-72
2021/06/04 02:54:39;;;;;;;12.73;10.10;;;20.70;70.20;;;;;;6258734;23;20139;-72
2021/06/04 02:57:14;;;;;;;13.13;11.00;;;20.70;70.30;;;;;;6258551;23;20142;-72
2021/06/04 02:59:43;;;;;;;9.43;8.52;;;20.70;70.30;;;;;;6258553;23;20421;-72
2021/06/04 03:02:21;;;;;;;12.23;10.63;;;20.70;70.40;;;;;;6249297;23;20031;-71
2021/06/04 03:04:53;;;;;;;13.02;10.88;;;20.70;70.40;;;;;;6258827;23;20019;-71
2021/06/04 03:07:41;;;;;;;13.85;11.50;;;20.70;70.50;;;;;;6249057;23;20016;-71
2021/06/04 03:10:20;;;;;;;12.30;11.00;;;20.70;70.40;;;;;;6258395;23;20016;-71
2021/06/04 03:12:47;;;;;;;12.75;11.00;;;20.70;70.60;;;;;;6258821;23;20020;-71
2021/06/04 03:15:37;;;;;;;12.88;10.98;;;20.70;70.60;;;;;;6251392;23;20047;-72
2021/06/04 03:18:04;;;;;;;13.13;10.45;;;20.70;70.70;;;;;;6232831;23;20008;-71
2021/06/04 03:20:39;;;;;;;13.10;11.68;;;20.60;70.60;;;;;;6248704;23;20016;-71
2021/06/04 03:23:08;;;;;;;12.43;10.55;;;20.60;70.50;;;;;;6258401;23;20012;-71
2021/06/04 03:25:38;;;;;;;12.55;11.25;;;20.60;70.70;;;;;;6258687;23;20019;-71
2021/06/04 03:28:07;;;;;;;14.48;10.43;;;20.60;70.70;;;;;;6248343;23;20012;-72
2021/06/04 03:30:39;;;;;;;15.57;12.00;;;20.60;70.70;;;;;;6258309;23;20016;-72
2021/06/04 03:33:07;;;;;;;12.30;11.00;;;20.60;70.60;;;;;;6248365;23;20019;-71
2021/06/04 03:35:33;;;;;;;14.15;11.18;;;20.60;70.70;;;;;;6257928;23;20008;-71
2021/06/04 03:38:00;;;;;;;12.95;11.18;;;20.60;70.80;;;;;;6258163;23;20016;-71
2021/06/04 03:40:28;;;;;;;14.15;11.30;;;20.60;70.80;;;;;;6258160;23;20016;-71
2021/06/04 03:42:56;;;;;;;13.25;11.32;;;20.60;70.80;;;;;;6258249;23;20016;-71
2021/06/04 03:45:26;;;;;;;13.93;11.05;;;20.60;70.90;;;;;;6248373;23;20016;-71
2021/06/04 03:47:53;;;;;;;15.00;12.10;;;20.60;70.90;;;;;;6258186;23;20031;-72
2021/06/04 03:50:20;;;;;;;12.73;11.15;;;20.60;70.90;;;;;;6256842;23;20016;-73
2021/06/04 03:52:46;;;;;;;16.58;13.25;;;20.50;70.70;;;;;;6257821;23;20340;-68
2021/06/04 03:55:14;;;;;;;17.30;11.85;;;20.50;71.20;;;;;;6257548;23;20088;-67
2021/06/04 03:57:41;;;;;;;16.88;11.02;;;20.50;70.60;;;;;;6231398;23;20016;-71
2021/06/04 04:00:33;;;;;;;18.15;14.38;;;20.50;70.60;;;;;;6257888;23;20046;-71
2021/06/04 04:02:59;;;;;;;16.90;12.38;;;20.50;70.60;;;;;;6247691;23;20016;-73
2021/06/04 04:05:26;;;;;;;16.15;11.82;;;20.60;70.90;;;;;;6257642;23;20074;-71
2021/06/04 04:07:52;;;;;;;14.13;12.18;;;20.50;71.20;;;;;;6231628;23;20027;-71
2021/06/04 04:10:21;;;;;;;17.45;12.63;;;20.50;71.10;;;;;;6256423;23;20031;-71
2021/06/04 04:12:49;;;;;;;21.33;14.00;;;20.50;71.10;;;;;;6257748;23;20077;-71
2021/06/04 04:15:18;;;;;;;14.65;12.40;;;20.50;71.00;;;;;;6223032;23;20467;-71
2021/06/04 04:17:51;;;;;;;16.23;12.82;;;20.50;71.00;;;;;;6257607;23;20448;-70
2021/06/04 04:20:45;;;;;;;13.10;11.10;;;20.50;71.10;;;;;;6257355;23;20452;-70
2021/06/04 04:23:15;;;;;;;16.00;11.80;;;20.50;71.00;;;;;;6257377;23;20016;-68
2021/06/04 04:25:45;;;;;;;17.08;12.00;;;20.60;71.20;;;;;;6257614;23;20016;-72
2021/06/04 04:28:21;;;;;;;17.83;11.88;;;20.50;71.20;;;;;;6250606;23;20405;-71
2021/06/04 04:30:47;;;;;;;18.80;11.82;;;20.50;71.20;;;;;;6249764;23;20020;-71
2021/06/04 04:33:14;;;;;;;18.38;12.15;;;20.50;71.20;;;;;;6249425;23;20020;-74
2021/06/04 04:35:40;;;;;;;19.30;13.18;;;20.50;71.20;;;;;;6249508;23;20020;-69
2021/06/04 04:38:08;;;;;;;21.35;13.07;;;20.50;71.20;;;;;;6259352;23;20488;-73
2021/06/04 04:40:38;;;;;;;19.60;13.00;;;20.60;71.40;;;;;;6223479;23;20016;-72
2021/06/04 04:43:07;;;;;;;24.65;16.10;;;20.60;71.40;;;;;;6259836;23;20022;-70
2021/06/04 04:45:52;;;;;;;26.05;14.93;;;20.60;71.20;;;;;;6259495;23;20074;-69
2021/06/04 04:48:20;;;;;;;20.95;13.55;;;20.60;71.20;;;;;;6249218;23;20032;-76
2021/06/04 04:50:46;;;;;;;38.40;27.73;;;20.60;71.40;;;;;;6259765;23;20016;-71
2021/06/04 04:53:14;;;;;;;37.95;25.45;;;20.60;70.90;;;;;;6249974;23;20020;-72
2021/06/04 04:55:41;;;;;;;36.97;25.20;;;20.50;70.90;;;;;;6249487;23;20020;-72
2021/06/04 04:58:09;;;;;;;39.70;25.67;;;20.50;71.00;;;;;;6259096;23;20431;-72
2021/06/04 05:00:37;;;;;;;39.08;26.52;;;20.50;71.10;;;;;;6259569;23;20020;-72
2021/06/04 05:03:04;;;;;;;36.13;25.63;;;20.50;71.20;;;;;;6249042;23;20312;-72
2021/06/04 05:05:34;;;;;;;33.83;26.05;;;20.50;71.30;;;;;;6249527;23;20077;-72
2021/06/04 05:08:00;;;;;;;35.55;23.60;;;20.50;71.20;;;;;;6259714;23;20283;-71
2021/06/04 05:10:28;;;;;;;35.50;23.52;;;20.50;71.20;;;;;;6259293;23;20012;-72
2021/06/04 05:12:54;;;;;;;30.98;21.65;;;20.60;71.20;;;;;;6259525;23;20016;-72
2021/06/04 05:15:23;;;;;;;34.97;21.70;;;20.60;71.20;;;;;;6252292;23;20012;-72
2021/06/04 05:17:49;;;;;;;31.80;22.88;;;20.60;71.10;;;;;;6259478;23;20039;-72
2021/06/04 05:20:17;;;;;;;32.72;21.58;;;20.50;71.00;;;;;;6259820;23;20020;-72
2021/06/04 05:22:43;;;;;;;29.77;20.20;;;20.60;70.90;;;;;;6260142;23;20037;-72
2021/06/04 05:25:14;;;;;;;29.13;20.70;;;20.60;70.90;;;;;;6259405;23;20087;-71
2021/06/04 05:27:40;;;;;;;28.05;20.55;;;20.60;70.80;;;;;;6260132;23;20016;-72
2021/06/04 05:30:17;;;;;;;25.83;19.38;;;20.60;70.70;;;;;;6249541;23;20020;-72
2021/06/04 05:32:43;;;;;;;26.48;19.88;;;20.60;70.70;;;;;;6249268;23;20311;-71
2021/06/04 05:35:10;;;;;;;30.63;20.02;;;20.60;70.80;;;;;;6258953;23;20031;-72
2021/06/04 05:37:37;;;;;;;26.08;18.48;;;20.60;70.70;;;;;;6249204;23;20051;-72
2021/06/04 05:40:10;;;;;;;28.58;19.95;;;20.60;70.60;;;;;;6259233;23;20012;-72
2021/06/04 05:42:37;;;;;;;23.02;18.35;;;20.60;70.50;;;;;;6260026;23;20016;-72
2021/06/04 05:45:04;;;;;;;25.17;17.90;;;20.60;70.60;;;;;;6259654;23;20115;-72
2021/06/04 05:47:30;;;;;;;26.95;18.40;;;20.60;70.60;;;;;;6259675;23;20417;-72
2021/06/04 05:49:56;;;;;;;25.50;18.20;;;20.60;70.50;;;;;;6259335;23;20031;-72
2021/06/04 05:52:21;;;;;;;25.42;16.90;;;20.60;70.50;;;;;;6259838;23;20028;-72
2021/06/04 05:54:48;;;;;;;20.63;16.55;;;20.60;71.10;;;;;;6258828;23;20020;-72
2021/06/04 05:57:15;;;;;;;22.15;17.63;;;20.60;70.40;;;;;;6259651;23;20016;-72
2021/06/04 05:59:41;;;;;;;22.17;16.85;;;20.70;70.40;;;;;;6258680;23;20417;-72
2021/06/04 06:02:08;;;;;;;22.90;16.88;;;20.70;70.50;;;;;;6259116;23;20012;-71
2021/06/04 06:04:35;;;;;;;22.42;17.13;;;20.70;70.40;;;;;;6249860;23;20020;-72
2021/06/04 06:07:00;;;;;;;23.75;17.27;;;20.70;70.30;;;;;;6259700;23;20022;-72
2021/06/04 06:09:26;;;;;;;21.88;16.08;;;20.70;70.20;;;;;;6259027;23;20043;-71
2021/06/04 06:11:52;;;;;;;18.80;15.90;;;20.70;70.20;;;;;;6258952;23;20016;-72
2021/06/04 06:14:18;;;;;;;20.08;15.43;;;20.70;70.20;;;;;;6249007;23;20027;-72
2021/06/04 06:16:45;;;;;;;22.10;15.48;;;20.80;70.10;;;;;;6259215;23;20023;-72
2021/06/04 06:19:18;;;;;;;21.08;16.00;;;20.70;70.00;;;;;;6259719;23;20008;-71
2021/06/04 06:21:47;;;;;;;19.85;15.00;;;20.70;69.90;;;;;;6258943;23;20087;-71
2021/06/04 06:24:13;;;;;;;17.33;14.40;;;20.80;69.90;;;;;;6249555;23;20051;-72
2021/06/04 06:26:41;;;;;;;21.05;15.45;;;20.80;69.90;;;;;;6258820;23;20368;-71
2021/06/04 06:29:09;;;;;;;18.75;14.73;;;20.80;69.90;;;;;;6258863;23;20016;-72
2021/06/04 06:31:40;;;;;;;20.77;16.02;;;20.80;69.90;;;;;;6248838;23;20093;-72
2021/06/04 06:34:08;;;;;;;21.00;16.35;;;20.80;69.90;;;;;;6258740;23;20012;-72
2021/06/04 06:36:37;;;;;;;21.30;16.92;;;20.80;70.00;;;;;;6248324;23;20020;-72
2021/06/04 06:39:13;;;;;;;20.88;15.77;;;20.80;70.00;;;;;;6259366;23;20087;-71
2021/06/04 06:41:42;;;;;;;21.92;16.40;;;20.80;70.00;;;;;;6258702;23;20016;-72
2021/06/04 06:44:09;;;;;;;19.85;16.17;;;20.80;70.00;;;;;;6258729;23;20039;-71
2021/06/04 06:46:35;;;;;;;19.23;14.90;;;20.80;70.00;;;;;;6258755;23;20086;-71
2021/06/04 06:49:01;;;;;;;20.08;16.33;;;20.80;70.00;;;;;;6258543;23;20016;-71
2021/06/04 06:51:27;;;;;;;23.15;16.00;;;20.80;70.60;;;;;;6248546;23;20017;-71
2021/06/04 06:53:53;;;;;;;19.05;16.25;;;20.80;70.00;;;;;;6259047;23;20016;-72
2021/06/04 06:56:20;;;;;;;19.23;15.73;;;20.80;70.00;;;;;;6258302;23;20012;-72
2021/06/04 06:58:47;;;;;;;20.80;16.73;;;20.80;70.00;;;;;;6248248;23;20012;-71
2021/06/04 07:01:14;;;;;;;21.25;16.50;;;20.80;70.00;;;;;;6258415;23;20049;-72
2021/06/04 07:03:42;;;;;;;19.90;17.10;;;20.80;70.00;;;;;;6249116;23;20039;-71
2021/06/04 07:06:13;;;;;;;19.85;16.60;;;20.80;70.00;;;;;;6248931;23;20316;-71
2021/06/04 07:08:39;;;;;;;21.42;17.48;;;20.80;70.10;;;;;;6258801;23;20008;-72
2021/06/04 07:11:05;;;;;;;19.60;17.05;;;20.80;70.10;;;;;;6258537;23;20027;-71
2021/06/04 07:13:32;;;;;;;21.15;16.42;;;20.80;70.10;;;;;;6248171;23;20031;-72
2021/06/04 07:16:01;;;;;;;22.15;17.23;;;20.90;70.10;;;;;;6258410;23;20050;-71
2021/06/04 07:18:28;;;;;;;21.52;17.23;;;20.80;70.10;;;;;;6258391;23;20012;-72
2021/06/04 07:20:55;;;;;;;22.33;17.50;;;20.80;70.10;;;;;;6258424;23;20015;-71
2021/06/04 07:23:22;;;;;;;21.02;17.50;;;20.90;70.20;;;;;;6259332;23;20012;-72
2021/06/04 07:26:01;;;;;;;22.67;17.92;;;20.80;70.20;;;;;;6248485;23;20054;-72
2021/06/04 07:28:37;;;;;;;21.27;17.48;;;20.80;70.20;;;;;;6248429;23;20283;-72
2021/06/04 07:31:07;;;;;;;20.98;18.77;;;20.90;70.20;;;;;;6248479;23;20020;-72
2021/06/04 07:33:36;;;;;;;21.92;18.73;;;20.90;70.20;;;;;;6259262;23;20023;-72
2021/06/04 07:36:06;;;;;;;22.27;18.25;;;20.80;70.20;;;;;;6249082;23;20020;-71
2021/06/04 07:38:32;;;;;;;21.58;17.88;;;20.90;70.20;;;;;;6258281;23;20013;-71
2021/06/04 07:40:58;;;;;;;19.33;17.33;;;20.90;70.20;;;;;;6248311;23;20016;-72
2021/06/04 07:43:27;;;;;;;20.50;18.13;;;20.90;70.20;;;;;;6258328;23;20023;-72
2021/06/04 07:45:54;;;;;;;20.40;17.70;;;20.90;70.20;;;;;;6258277;23;20032;-72
2021/06/04 07:48:20;;;;;;;20.15;17.90;;;20.90;70.20;;;;;;6258366;23;20429;-71
2021/06/04 07:50:49;;;;;;;22.58;18.50;;;20.80;70.20;;;;;;6247980;23;20079;-72
2021/06/04 07:53:19;;;;;;;21.08;17.92;;;20.90;70.20;;;;;;6258262;23;20016;-72
2021/06/04 07:55:45;;;;;;;22.33;18.67;;;20.90;70.20;;;;;;6258924;23;20428;-71
2021/06/04 07:58:11;;;;;;;19.92;17.75;;;20.90;70.20;;;;;;6258619;23;20362;-71
2021/06/04 08:00:40;;;;;;;20.42;18.20;;;20.80;70.20;;;;;;6258532;23;20019;-72
2021/06/04 08:03:08;;;;;;;20.80;18.48;;;20.90;70.20;;;;;;6249586;23;20023;-72
2021/06/04 08:05:35;;;;;;;21.98;19.13;;;20.90;70.20;;;;;;6260283;23;20030;-71
2021/06/04 08:08:03;;;;;;;22.20;19.00;;;20.80;70.20;;;;;;6260213;23;20095;-72
2021/06/04 08:10:33;;;;;;;20.42;17.95;;;20.80;70.20;;;;;;6250965;23;20051;-72
2021/06/04 08:13:00;;;;;;;22.20;19.40;;;20.90;70.30;;;;;;6234242;23;20012;-72
2021/06/04 08:15:31;;;;;;;23.33;20.65;;;20.90;70.20;;;;;;6251874;23;20020;-72
2021/06/04 08:17:57;;;;;;;25.70;21.65;;;20.90;70.20;;;;;;6260039;23;20019;-71
2021/06/04 08:20:26;;;;;;;25.20;21.63;;;20.90;70.20;;;;;;6260092;23;20015;-72
2021/06/04 08:22:56;;;;;;;27.88;23.85;;;20.90;70.80;;;;;;6250522;23;20031;-72
2021/06/04 08:25:26;;;;;;;24.77;21.08;;;20.90;70.20;;;;;;6259980;23;20016;-72
2021/06/04 08:27:52;;;;;;;23.23;20.80;;;20.90;70.20;;;;;;6250255;23;20054;-72
2021/06/04 08:30:19;;;;;;;23.65;21.17;;;21.00;70.30;;;;;;6260170;23;20012;-72
2021/06/04 08:32:45;;;;;;;23.70;21.20;;;21.00;70.20;;;;;;6250788;23;20103;-72
2021/06/04 08:35:12;;;;;;;23.83;19.75;;;21.00;70.20;;;;;;6259891;23;20326;-72
2021/06/04 08:37:39;;;;;;;25.42;20.98;;;21.00;70.20;;;;;;6250377;23;20360;-72
2021/06/04 08:40:12;;;;;;;24.05;21.33;;;21.00;70.20;;;;;;6260007;23;20062;-72
2021/06/04 08:42:53;;;;;;;28.13;22.35;;;21.00;70.20;;;;;;6259557;23;20306;-72
2021/06/04 08:45:37;;;;;;;26.52;21.63;;;21.10;70.20;;;;;;6250116;23;20093;-72
2021/06/04 08:48:40;;;;;;;24.90;20.35;;;21.00;70.10;;;;;;6249523;23;20019;-72
2021/06/04 08:51:24;;;;;;;24.45;21.13;;;21.00;70.10;;;;;;6259538;23;20474;-72
2021/06/04 08:54:10;;;;;;;24.33;21.15;;;21.10;70.20;;;;;;6260469;23;20094;-71
2021/06/04 08:56:45;;;;;;;23.25;20.58;;;21.10;70.10;;;;;;6203784;23;20440;-72
2021/06/04 08:59:16;;;;;;;22.35;19.73;;;21.10;70.20;;;;;;6249581;23;20020;-72
2021/06/04 09:01:57;;;;;;;22.77;19.77;;;21.10;70.20;;;;;;6259475;23;20059;-72
2021/06/04 09:04:33;;;;;;;22.92;20.48;;;21.10;70.30;;;;;;6259254;23;20019;-72
2021/06/04 09:07:09;;;;;;;23.10;18.90;;;21.10;70.20;;;;;;6259321;23;20337;-72
2021/06/04 09:09:42;;;;;;;20.02;17.95;;;21.10;70.20;;;;;;6249727;23;20035;-71
2021/06/04 09:12:16;;;;;;;24.80;19.08;;;21.10;70.20;;;;;;6259139;23;20282;-72
2021/06/04 09:14:43;;;;;;;21.08;18.80;;;21.10;70.20;;;;;;6249639;23;20028;-72
2021/06/04 09:17:26;;;;;;;20.92;18.25;;;21.20;70.30;;;;;;6249225;23;20444;-72
2021/06/04 09:19:57;;;;;;;19.80;17.63;;;21.10;70.20;;;;;;6250361;23;20023;-71
2021/06/04 09:22:25;;;;;;;21.77;19.10;;;21.20;70.30;;;;;;6249294;23;20027;-73
2021/06/04 09:24:52;;;;;;;18.75;16.38;;;21.20;70.30;;;;;;6259827;23;20043;-72
2021/06/04 09:27:35;;;;;;;20.77;17.83;;;21.20;70.30;;;;;;6259381;23;20424;-72
2021/06/04 09:30:21;;;;;;;18.85;16.33;;;21.20;70.20;;;;;;6249450;23;20016;-71
2021/06/04 09:33:06;;;;;;;19.77;17.67;;;21.20;70.20;;;;;;6249498;23;20020;-72
2021/06/04 09:35:33;;;;;;;20.65;18.05;;;21.20;70.10;;;;;;6259347;23;20016;-71
2021/06/04 09:38:19;;;;;;;19.42;17.35;;;21.20;70.30;;;;;;6249732;23;20024;-71
2021/06/04 09:40:49;;;;;;;21.08;18.88;;;21.20;70.20;;;;;;6249240;23;20020;-71
2021/06/04 09:43:22;;;;;;;19.75;16.70;;;21.20;70.30;;;;;;6260001;23;20043;-72
2021/06/04 09:45:59;;;;;;;18.57;15.77;;;21.20;70.30;;;;;;6260034;23;20012;-72
2021/06/04 09:49:04;;;;;;;19.35;17.05;;;21.20;70.20;;;;;;6249021;23;20044;-72
2021/06/04 09:51:32;;;;;;;;;;;21.30;70.20;;;;;;6157272;23;20021;-72
2021/06/04 09:54:25;;;;;;;17.23;14.80;;;21.30;70.20;;;;;;6156718;23;19924;-71
2021/06/04 09:57:09;;;;;;;18.85;15.07;;;21.30;70.30;;;;;;6217302;23;20020;-70
2021/06/04 09:59:35;;;;;;;;;;;21.20;70.50;;;;;;6258440;23;20012;-70
2021/06/04 10:02:24;;;;;;;16.63;13.82;;;21.20;70.40;;;;;;6233317;23;19915;-70
2021/06/04 10:04:50;;;;;;;19.98;15.40;;;21.30;70.80;;;;;;6249056;23;20039;-70
2021/06/04 10:07:23;;;;;;;18.67;14.18;;;21.30;70.90;;;;;;6259506;23;20417;-70
2021/06/04 10:09:50;;;;;;;20.35;14.05;;;21.30;70.90;;;;;;6258724;23;20437;-70
2021/06/04 10:12:32;;;;;;;16.95;12.35;;;21.30;70.90;;;;;;6257777;23;20020;-69
2021/06/04 10:15:23;;;;;;;16.67;13.23;;;21.30;70.90;;;;;;6248237;23;20333;-70
2021/06/04 10:20:39;;;;;;;15.43;11.88;;;21.30;71.70;;;;;;6249468;23;20020;-71
2021/06/04 10:23:30;;;;;;;21.25;13.45;;;21.30;71.20;;;;;;6258774;23;20504;-72
2021/06/04 10:25:59;;;;;;;23.00;16.25;;;21.40;71.50;;;;;;6258150;23;20089;-73
2021/06/04 10:28:39;;;;;;;21.15;14.90;;;21.30;72.10;;;;;;6258989;23;20016;-72
2021/06/04 10:31:37;;;;;;;19.85;17.75;;;21.40;72.30;;;;;;6258831;23;20016;-72
2021/06/04 10:34:44;;;;;;;25.50;17.48;;;21.40;72.50;;;;;;6240111;23;20016;-73
2021/06/04 10:37:17;;;;;;;20.85;17.92;;;21.40;73.10;;;;;;6213466;23;20429;-73
2021/06/04 10:39:49;;;;;;;20.00;17.60;;;21.40;72.40;;;;;;6258655;23;20012;-73
2021/06/04 10:42:41;;;;;;;19.70;15.23;;;21.50;72.80;;;;;;6222489;23;20233;-71
2021/06/04 10:45:16;;;;;;;20.58;18.23;;;21.50;73.30;;;;;;6207968;23;20020;-74
2021/06/04 10:47:59;;;;;;;19.90;15.68;;;21.50;73.10;;;;;;6248621;23;20094;-73
2021/06/04 10:50:39;;;;;;;25.67;17.60;;;21.50;73.40;;;;;;6258793;23;20016;-75
2021/06/04 10:53:33;;;;;;;23.40;17.60;;;21.50;73.50;;;;;;6248344;23;20019;-71
2021/06/04 10:56:10;;;;;;;19.13;16.17;;;21.50;73.40;;;;;;6258349;23;20016;-71
2021/06/04 10:58:52;;;;;;;19.08;14.93;;;21.50;73.30;;;;;;6258847;23;20023;-71
2021/06/04 11:01:26;;;;;;;22.33;15.27;;;21.50;73.50;;;;;;6249222;23;20070;-71
2021/06/04 11:04:20;;;;;;;18.30;13.20;;;21.50;73.50;;;;;;6258438;23;20011;-71
2021/06/04 11:06:55;;;;;;;16.48;13.98;;;21.50;73.40;;;;;;6258811;23;20016;-71
2021/06/04 11:09:44;;;;;;;14.98;12.70;;;21.50;73.40;;;;;;6248394;23;20039;-72
2021/06/04 11:12:39;;;;;;;15.40;12.75;;;21.50;73.40;;;;;;6250330;23;20421;-72
2021/06/04 11:15:32;;;;;;;14.20;12.32;;;21.50;73.20;;;;;;6248785;23;20290;-71
2021/06/04 11:18:02;;;;;;;14.85;12.48;;;21.50;73.30;;;;;;6258062;23;20417;-71
2021/06/04 11:20:48;;;;;;;13.93;11.85;;;21.50;73.20;;;;;;6259166;23;20020;-71
2021/06/04 11:23:25;;;;;;;16.85;11.63;;;21.50;73.20;;;;;;6258482;23;20012;-71
2021/06/04 11:25:59;;;;;;;12.77;10.93;;;21.50;73.10;;;;;;6258464;23;20027;-71
2021/06/04 11:28:46;;;;;;;13.73;10.52;;;21.60;73.10;;;;;;6249054;23;20328;-71
2021/06/04 11:31:49;;;;;;;11.73;10.02;;;21.50;73.00;;;;;;6258435;23;20016;-71
2021/06/04 11:34:41;;;;;;;16.42;10.20;;;21.50;72.90;;;;;;6248462;23;20023;-71
2021/06/04 11:37:12;;;;;;;12.38;10.02;;;21.50;72.90;;;;;;6258293;23;20027;-71
2021/06/04 11:39:42;;;;;;;11.38;9.48;;;21.50;72.90;;;;;;6258590;23;20019;-71
2021/06/04 11:42:12;;;;;;;10.15;9.13;;;21.60;72.90;;;;;;6258649;23;20012;-71
2021/06/04 11:44:43;;;;;;;10.95;9.77;;;21.60;72.90;;;;;;6258508;23;20012;-71
2021/06/04 11:47:12;;;;;;;10.80;9.70;;;21.50;72.70;;;;;;6258299;23;20472;-71
2021/06/04 11:49:53;;;;;;;10.77;9.20;;;21.50;72.70;;;;;;6258318;23;20012;-71
2021/06/04 11:52:34;;;;;;;9.98;8.98;;;21.60;72.70;;;;;;6258198;23;20016;-71
2021/06/04 11:55:28;;;;;;;11.63;8.90;;;21.50;72.60;;;;;;6258291;23;20016;-71
2021/06/04 11:57:56;;;;;;;;;;;21.60;72.60;;;;;;6258960;23;20018;-71
2021/06/04 12:00:25;;;;;;;11.40;9.10;;;21.50;72.50;;;;;;6248500;23;20208;-71
2021/06/04 12:03:18;;;;;;;11.27;8.82;;;21.50;72.50;;;;;;6248012;23;20091;-71
2021/06/04 12:05:47;;;;;;;10.88;9.15;;;21.60;72.50;;;;;;6258154;23;20016;-71
2021/06/04 12:08:17;;;;;;;9.60;8.05;;;21.60;72.40;;;;;;6258309;23;20016;-71
2021/06/04 12:10:49;;;;;;;8.95;8.05;;;21.60;72.40;;;;;;6258320;23;20321;-71
2021/06/04 12:13:47;;;;;;;10.50;8.55;;;21.60;72.30;;;;;;6258500;23;20020;-71
2021/06/04 12:16:25;;;;;;;8.93;8.02;;;21.60;72.30;;;;;;6258053;23;20023;-71
2021/06/04 12:19:00;;;;;;;8.88;7.97;;;21.60;72.30;;;;;;6258110;23;20305;-72
2021/06/04 12:21:38;;;;;;;9.98;7.75;;;21.60;72.20;;;;;;6247980;23;20016;-72
2021/06/04 12:24:24;;;;;;;8.55;7.72;;;21.60;72.20;;;;;;6258160;23;20018;-71
2021/06/04 12:26:53;;;;;;;8.40;7.60;;;21.60;72.10;;;;;;6247468;23;20048;-72
2021/06/04 12:29:24;;;;;;;9.82;8.23;;;21.50;72.10;;;;;;6257695;23;20359;-71
2021/06/04 12:32:00;;;;;;;10.00;8.10;;;21.60;72.10;;;;;;6248212;23;20016;-71
2021/06/04 12:34:36;;;;;;;8.45;7.55;;;21.60;72.10;;;;;;6258818;23;20043;-71
2021/06/04 12:37:02;;;;;;;9.00;7.93;;;21.50;72.00;;;;;;6247899;23;20024;-72
2021/06/04 12:39:36;;;;;;;7.82;7.13;;;21.60;72.10;;;;;;6257959;23;20046;-71
2021/06/04 12:42:17;;;;;;;8.05;7.25;;;21.60;72.10;;;;;;6258129;23;20016;-71
2021/06/04 12:45:10;;;;;;;8.68;7.80;;;21.60;72.00;;;;;;6257739;23;20359;-71
2021/06/04 12:47:46;;;;;;;8.55;7.68;;;21.60;71.90;;;;;;6202648;23;20083;-71
2021/06/04 12:50:27;;;;;;;8.77;7.13;;;21.60;72.00;;;;;;6259514;23;20094;-72
2021/06/04 12:53:10;;;;;;;8.43;7.57;;;21.60;71.90;;;;;;6260100;23;20046;-71
2021/06/04 12:55:37;;;;;;;8.07;7.25;;;21.60;71.90;;;;;;6233522;23;20095;-71
2021/06/04 12:58:11;;;;;;;8.25;7.13;;;21.60;71.90;;;;;;6259678;23;20020;-71
2021/06/04 13:00:39;;;;;;;9.40;7.53;;;21.60;71.90;;;;;;6260251;23;20016;-71
2021/06/04 13:03:28;;;;;;;8.73;7.53;;;21.60;71.90;;;;;;6260383;23;20047;-71
2021/06/04 13:05:56;;;;;;;7.40;6.80;;;21.60;71.80;;;;;;6235868;23;20020;-71